createdAt,value
2022-11-09T00:00:43.424Z,5.68
2022-11-09T00:03:11.846Z,5.68
2022-11-09T00:05:39.767Z,5.67
2022-11-09T00:08:09.601Z,5.63
2022-11-09T00:10:37.449Z,5.63
2022-11-09T00:13:05.503Z,5.59
2022-11-09T00:15:33.176Z,5.57
2022-11-09T00:18:01.832Z,5.55
2022-11-09T00:20:29.484Z,5.52
2022-11-09T00:22:57.161Z,5.48
2022-11-09T00:25:26.275Z,5.48
2022-11-09T00:27:54.332Z,5.47
2022-11-09T00:30:22.016Z,5.47
2022-11-09T00:32:49.701Z,5.48
2022-11-09T00:35:17.396Z,5.48
2022-11-09T00:37:45.106Z,5.48
2022-11-09T00:40:13.531Z,5.49
2022-11-09T00:42:42.611Z,5.48
2022-11-09T00:45:10.845Z,5.50
2022-11-09T00:47:38.819Z,5.48
2022-11-09T00:50:07.251Z,5.45
2022-11-09T00:52:34.895Z,5.44
2022-11-09T00:55:02.631Z,5.47
2022-11-09T00:57:30.322Z,5.46
2022-11-09T00:59:59.375Z,5.47
2022-11-09T01:02:27.031Z,5.47
2022-11-09T01:04:54.786Z,5.44
2022-11-09T01:07:22.442Z,5.42
2022-11-09T01:09:50.228Z,5.41
2022-11-09T01:12:17.921Z,5.40
2022-11-09T01:14:45.848Z,5.43
2022-11-09T01:17:14.902Z,5.41
2022-11-09T01:19:42.733Z,5.37
2022-11-09T01:22:10.353Z,5.36
2022-11-09T01:24:37.977Z,5.35
2022-11-09T01:27:05.727Z,5.34
2022-11-09T01:29:33.533Z,5.29
2022-11-09T01:32:01.216Z,5.28
2022-11-09T01:34:30.492Z,5.29
2022-11-09T01:36:58.991Z,5.26
2022-11-09T01:39:26.646Z,5.26
2022-11-09T01:41:54.349Z,5.23
2022-11-09T01:44:22.250Z,5.22
2022-11-09T01:46:52.907Z,5.20
2022-11-09T01:49:25.488Z,5.18
2022-11-09T01:51:56.947Z,5.12
2022-11-09T01:54:27.360Z,5.11
2022-11-09T01:57:00.447Z,5.08
2022-11-09T01:59:30.873Z,5.04
2022-11-09T02:01:59.732Z,5.02
2022-11-09T02:04:29.422Z,5.02
2022-11-09T02:06:59.315Z,5.01
2022-11-09T02:09:29.727Z,4.98
2022-11-09T02:11:57.568Z,4.99
2022-11-09T02:14:26.706Z,4.99
2022-11-09T02:16:54.474Z,4.97
2022-11-09T02:19:22.130Z,4.98
2022-11-09T02:21:51.365Z,4.98
2022-11-09T02:24:19.573Z,4.99
2022-11-09T02:26:49.675Z,4.99
2022-11-09T02:29:20.075Z,4.97
2022-11-09T02:31:49.832Z,4.93
2022-11-09T02:34:19.386Z,4.91
2022-11-09T02:36:47.507Z,4.89
2022-11-09T02:39:19.041Z,4.85
2022-11-09T02:41:49.543Z,4.83
2022-11-09T02:44:17.364Z,4.82
2022-11-09T02:46:45.129Z,4.84
2022-11-09T02:49:12.836Z,4.83
2022-11-09T02:51:40.592Z,4.82
2022-11-09T02:54:08.283Z,4.81
2022-11-09T02:56:37.430Z,4.79
2022-11-09T02:59:05.084Z,4.79
2022-11-09T03:01:32.884Z,4.79
2022-11-09T03:04:00.582Z,4.80
2022-11-09T03:06:35.151Z,4.80
2022-11-09T03:09:03.420Z,4.80
2022-11-09T03:11:31.113Z,4.82
2022-11-09T03:14:00.321Z,4.82
2022-11-09T03:16:28.162Z,4.82
2022-11-09T03:18:56.724Z,4.81
2022-11-09T03:21:24.605Z,4.81
2022-11-09T03:23:53.966Z,4.78
2022-11-09T03:26:21.972Z,4.76
2022-11-09T03:28:49.650Z,4.75
2022-11-09T03:31:18.661Z,4.74
2022-11-09T03:33:46.381Z,4.74
2022-11-09T03:36:15.150Z,4.74
2022-11-09T03:38:42.943Z,4.73
2022-11-09T03:41:10.603Z,4.72
2022-11-09T03:43:38.266Z,4.72
2022-11-09T03:46:06.020Z,4.71
2022-11-09T03:48:34.968Z,4.69
2022-11-09T03:51:02.629Z,4.69
2022-11-09T03:53:30.250Z,4.70
2022-11-09T03:55:58.736Z,4.69
2022-11-09T03:58:26.429Z,4.68
2022-11-09T04:00:54.106Z,4.68
2022-11-09T04:03:22.017Z,4.70
2022-11-09T04:05:51.278Z,4.70
2022-11-09T04:08:18.913Z,4.70
2022-11-09T04:10:46.587Z,4.66
2022-11-09T04:13:14.227Z,4.64
2022-11-09T04:15:41.877Z,4.65
2022-11-09T04:18:12.689Z,4.67
2022-11-09T04:20:40.480Z,4.67
2022-11-09T04:23:12.106Z,4.72
2022-11-09T04:25:40.990Z,4.73
2022-11-09T04:28:10.749Z,4.75
2022-11-09T04:30:38.624Z,4.76
2022-11-09T04:33:06.566Z,4.77
2022-11-09T04:35:35.018Z,4.79
2022-11-09T04:38:04.382Z,4.82
2022-11-09T04:40:34.561Z,4.83
2022-11-09T04:43:02.688Z,4.85
2022-11-09T04:45:30.345Z,4.85
2022-11-09T04:47:59.400Z,4.88
2022-11-09T04:50:27.411Z,4.90
2022-11-09T04:52:55.068Z,4.95
2022-11-09T04:55:22.710Z,4.98
2022-11-09T04:57:51.743Z,4.99
2022-11-09T05:00:19.919Z,5.03
2022-11-09T05:02:47.662Z,5.04
2022-11-09T05:05:15.405Z,5.06
2022-11-09T05:07:43.083Z,5.08
2022-11-09T05:10:11.041Z,5.09
2022-11-09T05:12:41.196Z,5.11
2022-11-09T05:15:14.141Z,5.13
2022-11-09T05:17:41.800Z,5.12
2022-11-09T05:20:10.628Z,5.13
2022-11-09T05:22:58.745Z,5.11
2022-11-09T05:25:26.484Z,5.09
2022-11-09T05:27:54.484Z,5.08
2022-11-09T05:30:23.530Z,5.07
2022-11-09T05:32:51.252Z,5.07
2022-11-09T05:35:19.109Z,5.09
2022-11-09T05:37:49.597Z,5.08
2022-11-09T05:40:18.341Z,5.08
2022-11-09T05:42:46.457Z,5.08
2022-11-09T05:45:40.823Z,5.08
2022-11-09T05:48:06.455Z,5.03
2022-11-09T05:50:34.179Z,5.03
2022-11-09T05:53:02.498Z,5.02
2022-11-09T05:55:30.274Z,4.98
2022-11-09T05:57:57.964Z,4.99
2022-11-09T06:00:25.951Z,5.00
2022-11-09T06:02:53.906Z,5.00
2022-11-09T06:05:23.019Z,5.03
2022-11-09T06:07:50.742Z,5.06
2022-11-09T06:10:18.659Z,5.10
2022-11-09T06:12:46.482Z,5.15
2022-11-09T06:15:14.178Z,5.18
2022-11-09T06:17:44.492Z,5.23
2022-11-09T06:20:12.702Z,5.18
2022-11-09T06:22:41.981Z,5.24
2022-11-09T06:25:09.974Z,5.27
2022-11-09T06:27:37.816Z,5.29
2022-11-09T06:30:06.487Z,5.33
2022-11-09T06:32:34.233Z,5.39
2022-11-09T06:35:01.894Z,5.40
2022-11-09T06:37:29.674Z,5.44
2022-11-09T06:39:58.830Z,5.49
2022-11-09T06:42:26.524Z,5.53
2022-11-09T06:44:54.316Z,5.59
2022-11-09T06:47:22.080Z,5.65
2022-11-09T06:49:49.777Z,5.72
2022-11-09T06:52:17.498Z,5.78
2022-11-09T06:54:45.368Z,5.81
2022-11-09T06:57:14.737Z,5.85
2022-11-09T06:59:42.432Z,5.89
2022-11-09T07:02:11.321Z,5.96
2022-11-09T07:04:39.050Z,6.02
2022-11-09T07:07:08.529Z,6.09
2022-11-09T07:09:36.354Z,6.15
2022-11-09T07:12:04.517Z,6.22
2022-11-09T07:14:33.627Z,6.28
2022-11-09T07:17:01.356Z,6.35
2022-11-09T07:19:29.663Z,6.39
2022-11-09T07:21:57.542Z,6.42
2022-11-09T07:24:25.459Z,6.47
2022-11-09T07:26:53.120Z,6.54
2022-11-09T07:29:20.903Z,6.59
2022-11-09T07:31:50.039Z,6.64
2022-11-09T07:34:17.806Z,6.69
2022-11-09T07:36:45.645Z,6.75
2022-11-09T07:39:13.609Z,6.74
2022-11-09T07:41:41.363Z,6.80
2022-11-09T07:44:09.509Z,6.83
2022-11-09T07:46:37.338Z,6.90
2022-11-09T07:49:06.703Z,6.99
2022-11-09T07:51:36.062Z,7.04
2022-11-09T07:54:03.975Z,7.09
2022-11-09T07:56:31.683Z,7.16
2022-11-09T07:58:59.419Z,7.23
2022-11-09T08:01:27.475Z,7.37
2022-11-09T08:03:55.387Z,7.50
2022-11-09T08:06:28.103Z,7.63
2022-11-09T08:08:56.614Z,7.75
2022-11-09T08:11:24.522Z,7.88
2022-11-09T08:13:52.362Z,8.07
2022-11-09T08:16:20.328Z,8.22
2022-11-09T08:18:48.127Z,8.38
2022-11-09T08:21:15.808Z,8.63
2022-11-09T08:23:45.019Z,8.83
2022-11-09T08:26:13.329Z,9.07
2022-11-09T08:28:40.966Z,9.23
2022-11-09T08:31:09.311Z,9.40
2022-11-09T08:33:38.969Z,9.49
2022-11-09T08:36:11.006Z,9.56
2022-11-09T08:38:39.148Z,9.67
2022-11-09T08:41:13.258Z,9.75
2022-11-09T08:43:41.520Z,9.79
2022-11-09T08:46:09.240Z,9.78
2022-11-09T08:48:37.092Z,9.75
2022-11-09T08:51:04.913Z,9.70
2022-11-09T08:53:32.617Z,9.65
2022-11-09T08:56:00.306Z,9.55
2022-11-09T08:58:30.591Z,9.53
2022-11-09T09:00:58.361Z,9.53
2022-11-09T09:03:26.187Z,9.54
2022-11-09T09:05:53.986Z,9.60
2022-11-09T09:08:23.250Z,9.68
2022-11-09T09:10:51.326Z,9.78
2022-11-09T09:13:22.724Z,9.92
2022-11-09T09:15:51.944Z,10.12
2022-11-09T09:18:19.883Z,10.29
2022-11-09T09:20:47.776Z,10.34
2022-11-09T09:23:17.000Z,10.41
2022-11-09T09:25:45.021Z,10.49
2022-11-09T09:28:12.916Z,10.58
2022-11-09T09:30:40.675Z,10.68
2022-11-09T09:33:09.776Z,10.78
2022-11-09T09:35:37.481Z,10.89
2022-11-09T09:38:05.303Z,10.98
2022-11-09T09:40:38.046Z,11.06
2022-11-09T09:43:05.733Z,11.16
2022-11-09T09:45:35.197Z,11.28
2022-11-09T09:48:06.747Z,11.41
2022-11-09T09:50:39.063Z,11.54
2022-11-09T09:53:29.596Z,11.60
2022-11-09T09:56:02.092Z,11.59
2022-11-09T09:58:31.589Z,11.64
2022-11-09T10:01:12.115Z,11.68
2022-11-09T10:03:39.826Z,11.76
2022-11-09T10:06:34.947Z,11.81
2022-11-09T10:09:08.165Z,11.88
2022-11-09T10:11:42.749Z,12.00
2022-11-09T10:14:41.970Z,12.15
2022-11-09T10:17:15.823Z,12.44
2022-11-09T10:19:58.419Z,12.59
2022-11-09T10:22:36.682Z,12.75
2022-11-09T10:25:27.492Z,13.02
2022-11-09T10:27:59.656Z,13.28
2022-11-09T10:30:29.049Z,13.56
2022-11-09T10:32:58.248Z,13.81
2022-11-09T10:35:30.674Z,14.12
2022-11-09T10:37:59.792Z,14.33
2022-11-09T10:40:31.561Z,14.53
2022-11-09T10:43:00.834Z,14.71
2022-11-09T10:45:31.625Z,14.90
2022-11-09T10:47:59.759Z,15.07
2022-11-09T10:50:34.539Z,15.12
2022-11-09T10:53:14.340Z,15.22
2022-11-09T10:55:51.892Z,15.28
2022-11-09T10:58:28.194Z,15.33
2022-11-09T11:00:59.779Z,15.53
2022-11-09T11:03:27.481Z,15.76
2022-11-09T11:05:59.332Z,15.84
2022-11-09T11:08:35.345Z,15.99
2022-11-09T11:11:38.056Z,16.07
2022-11-09T11:14:17.121Z,16.07
2022-11-09T11:16:50.708Z,16.08
2022-11-09T11:19:32.303Z,16.15
2022-11-09T11:22:22.901Z,16.18
2022-11-09T11:24:59.359Z,16.24
2022-11-09T11:27:33.250Z,16.34
2022-11-09T11:30:07.416Z,16.44
2022-11-09T11:32:35.385Z,16.42
2022-11-09T11:35:04.986Z,16.50
2022-11-09T11:37:43.383Z,16.40
2022-11-09T11:40:18.475Z,16.39
2022-11-09T11:42:56.803Z,16.53
2022-11-09T11:45:41.665Z,16.74
2022-11-09T11:48:36.358Z,16.82
2022-11-09T11:51:09.300Z,16.85
2022-11-09T11:53:56.141Z,16.84
2022-11-09T11:56:28.403Z,16.81
2022-11-09T11:59:00.586Z,16.89
2022-11-09T12:01:37.789Z,16.95
2022-11-09T12:04:16.854Z,16.96
2022-11-09T12:06:55.930Z,16.84
2022-11-09T12:09:35.312Z,16.64
2022-11-09T12:12:14.109Z,16.57
2022-11-09T12:14:50.462Z,16.53
2022-11-09T12:17:28.152Z,16.75
2022-11-09T12:20:19.869Z,16.90
2022-11-09T12:22:56.051Z,16.95
2022-11-09T12:25:26.272Z,16.99
2022-11-09T12:28:04.656Z,17.01
2022-11-09T12:30:43.180Z,17.01
2022-11-09T12:33:14.529Z,17.02
2022-11-09T12:35:44.990Z,16.74
2022-11-09T12:38:17.001Z,16.71
2022-11-09T12:40:48.181Z,16.81
2022-11-09T12:43:22.150Z,16.62
2022-11-09T12:45:51.495Z,16.41
2022-11-09T12:48:25.539Z,16.51
2022-11-09T12:50:53.909Z,16.63
2022-11-09T12:53:25.065Z,16.79
2022-11-09T12:55:56.180Z,16.79
2022-11-09T12:58:27.200Z,16.78
2022-11-09T13:00:57.016Z,16.78
2022-11-09T13:03:27.608Z,16.77
2022-11-09T13:06:13.247Z,16.81
2022-11-09T13:08:41.723Z,16.62
2022-11-09T13:11:11.340Z,16.49
2022-11-09T13:13:40.517Z,16.55
2022-11-09T13:16:12.467Z,16.39
2022-11-09T13:18:52.360Z,16.18
2022-11-09T13:21:40.493Z,16.25
2022-11-09T13:24:55.732Z,16.44
2022-11-09T13:27:39.128Z,16.41
2022-11-09T13:30:39.344Z,16.38
2022-11-09T13:33:25.059Z,16.32
2022-11-09T13:36:23.168Z,16.24
2022-11-09T13:39:40.333Z,16.24
2022-11-09T13:42:29.754Z,16.22
2022-11-09T13:45:17.921Z,16.27
2022-11-09T13:47:52.456Z,16.28
2022-11-09T13:50:22.196Z,16.32
2022-11-09T13:52:52.275Z,16.38
2022-11-09T13:55:25.836Z,16.44
2022-11-09T13:57:55.116Z,16.44
2022-11-09T14:00:24.787Z,16.39
2022-11-09T14:03:00.641Z,16.37
2022-11-09T14:05:30.383Z,16.40
2022-11-09T14:08:01.843Z,16.47
2022-11-09T14:10:47.997Z,16.34
2022-11-09T14:13:29.156Z,16.28
2022-11-09T14:15:59.710Z,16.30
2022-11-09T14:18:38.285Z,16.27
2022-11-09T14:21:15.999Z,16.25
2022-11-09T14:23:43.973Z,16.15
2022-11-09T14:26:18.615Z,16.08
2022-11-09T14:28:46.657Z,16.01
2022-11-09T14:31:26.002Z,15.99
2022-11-09T14:34:02.721Z,16.00
2022-11-09T14:36:32.350Z,15.90
2022-11-09T14:39:02.242Z,15.87
2022-11-09T14:41:30.840Z,15.83
2022-11-09T14:44:00.557Z,15.85
2022-11-09T14:46:29.772Z,15.87
2022-11-09T14:48:58.825Z,15.86
2022-11-09T14:51:32.137Z,15.88
2022-11-09T14:54:00.862Z,15.77
2022-11-09T14:56:29.005Z,15.70
2022-11-09T14:58:58.040Z,15.65
2022-11-09T15:01:27.170Z,15.51
2022-11-09T15:04:09.282Z,15.42
2022-11-09T15:06:46.132Z,15.31
2022-11-09T15:09:19.822Z,15.24
2022-11-09T15:11:48.541Z,15.15
2022-11-09T15:14:25.092Z,15.11
2022-11-09T15:16:59.058Z,15.04
2022-11-09T15:19:31.141Z,14.71
2022-11-09T15:22:01.924Z,14.66
2022-11-09T15:24:30.629Z,14.65
2022-11-09T15:26:59.068Z,14.67
2022-11-09T15:29:30.721Z,14.67
2022-11-09T15:32:00.839Z,14.63
2022-11-09T15:34:33.622Z,14.39
2022-11-09T15:37:02.923Z,14.31
2022-11-09T15:39:31.001Z,14.27
2022-11-09T15:41:58.931Z,14.12
2022-11-09T15:44:26.748Z,14.15
2022-11-09T15:46:54.962Z,14.18
2022-11-09T15:49:24.852Z,14.21
2022-11-09T15:51:53.619Z,14.15
2022-11-09T15:54:23.698Z,14.11
2022-11-09T15:56:52.303Z,13.98
2022-11-09T15:59:23.159Z,13.91
2022-11-09T16:01:51.139Z,13.89
2022-11-09T16:04:19.409Z,13.85
2022-11-09T16:06:47.322Z,13.77
2022-11-09T16:09:15.199Z,13.67
2022-11-09T16:11:44.648Z,13.65
2022-11-09T16:14:12.460Z,13.61
2022-11-09T16:16:40.492Z,13.57
2022-11-09T16:19:08.488Z,13.47
2022-11-09T16:21:36.397Z,13.43
2022-11-09T16:24:04.292Z,13.36
2022-11-09T16:26:32.036Z,13.29
2022-11-09T16:29:01.381Z,13.27
2022-11-09T16:31:50.285Z,13.26
2022-11-09T16:34:17.346Z,13.26
2022-11-09T16:36:50.855Z,13.22
2022-11-09T16:39:22.086Z,13.21
2022-11-09T16:41:51.545Z,13.19
2022-11-09T16:44:23.499Z,13.13
2022-11-09T16:46:52.227Z,13.10
2022-11-09T16:49:20.091Z,13.09
2022-11-09T16:51:47.892Z,13.08
2022-11-09T16:54:15.806Z,13.07
2022-11-09T16:56:43.628Z,13.07
2022-11-09T16:59:11.424Z,13.06
2022-11-09T17:01:40.839Z,12.99
2022-11-09T17:04:08.721Z,12.98
2022-11-09T17:06:37.032Z,12.95
2022-11-09T17:09:05.095Z,12.90
2022-11-09T17:11:32.872Z,12.84
2022-11-09T17:14:01.531Z,12.85
2022-11-09T17:16:29.367Z,12.79
2022-11-09T17:18:59.340Z,12.72
2022-11-09T17:21:28.815Z,12.68
2022-11-09T17:23:57.368Z,12.62
2022-11-09T17:26:26.544Z,12.46
2022-11-09T17:28:54.464Z,12.43
2022-11-09T17:31:23.969Z,12.40
2022-11-09T17:33:51.784Z,12.39
2022-11-09T17:36:41.550Z,12.37
2022-11-09T17:39:09.502Z,12.34
2022-11-09T17:41:42.244Z,12.30
2022-11-09T17:44:10.460Z,12.30
2022-11-09T17:46:38.313Z,12.23
2022-11-09T17:49:09.920Z,12.21
2022-11-09T17:51:39.498Z,12.19
2022-11-09T17:54:07.361Z,12.21
2022-11-09T17:56:35.836Z,12.22
2022-11-09T17:59:05.131Z,12.18
2022-11-09T18:01:36.568Z,12.16
2022-11-09T18:04:09.135Z,12.18
2022-11-09T18:06:36.949Z,12.17
2022-11-09T18:11:54.300Z,12.07
2022-11-09T18:14:22.059Z,12.01
2022-11-09T18:16:49.775Z,11.99
2022-11-09T18:19:17.533Z,11.96
2022-11-09T18:21:45.823Z,11.92
2022-11-09T18:24:17.188Z,11.87
2022-11-09T18:27:13.551Z,11.84
2022-11-09T18:29:42.285Z,11.85
2022-11-09T18:32:14.035Z,11.85
2022-11-09T18:35:07.794Z,11.78
2022-11-09T18:37:35.730Z,11.74
2022-11-09T18:40:05.301Z,11.74
2022-11-09T18:42:33.021Z,11.71
2022-11-09T18:45:01.338Z,11.62
2022-11-09T18:47:29.244Z,11.62
2022-11-09T18:49:56.998Z,11.60
2022-11-09T18:52:25.084Z,11.46
2022-11-09T18:54:52.950Z,11.46
2022-11-09T18:57:22.225Z,11.39
2022-11-09T18:59:50.036Z,11.39
2022-11-09T19:02:17.871Z,11.41
2022-11-09T19:04:46.106Z,11.42
2022-11-09T19:07:13.971Z,11.40
2022-11-09T19:09:42.369Z,11.35
2022-11-09T19:12:11.653Z,11.36
2022-11-09T19:14:41.954Z,11.33
2022-11-09T19:17:12.894Z,11.27
2022-11-09T19:19:40.795Z,11.28
2022-11-09T19:22:15.829Z,11.21
2022-11-09T19:24:43.725Z,11.13
2022-11-09T19:27:11.558Z,11.16
2022-11-09T19:29:40.784Z,11.15
2022-11-09T19:32:08.578Z,11.11
2022-11-09T19:34:36.288Z,11.08
2022-11-09T19:37:04.035Z,11.08
2022-11-09T19:39:34.755Z,11.09
2022-11-09T19:42:03.835Z,11.02
2022-11-09T19:44:31.605Z,11.02
2022-11-09T19:47:00.705Z,11.04
2022-11-09T19:49:28.411Z,11.06
2022-11-09T19:51:56.632Z,11.08
2022-11-09T19:54:24.427Z,11.08
2022-11-09T19:56:52.188Z,11.07
2022-11-09T19:59:20.807Z,11.06
2022-11-09T20:01:48.484Z,11.05
2022-11-09T20:04:17.569Z,11.04
2022-11-09T20:06:45.379Z,11.05
2022-11-09T20:09:13.434Z,11.11
2022-11-09T20:11:58.622Z,11.10
2022-11-09T20:14:26.366Z,11.10
2022-11-09T20:16:54.826Z,11.12
2022-11-09T20:19:25.389Z,11.12
2022-11-09T20:21:53.144Z,11.12
2022-11-09T20:24:20.869Z,11.12
2022-11-09T20:26:48.665Z,11.09
2022-11-09T20:29:16.692Z,11.13
2022-11-09T20:31:44.387Z,11.17
2022-11-09T20:34:12.172Z,11.17
2022-11-09T20:36:41.531Z,11.17
2022-11-09T20:39:09.333Z,11.16
2022-11-09T20:41:37.648Z,11.15
2022-11-09T20:44:05.384Z,11.12
2022-11-09T20:46:36.449Z,11.12
2022-11-09T20:49:05.122Z,11.12
2022-11-09T20:51:33.269Z,11.12
2022-11-09T20:54:06.930Z,11.07
2022-11-09T20:56:35.505Z,11.04
2022-11-09T20:59:03.262Z,11.00
2022-11-09T21:01:31.174Z,11.00
2022-11-09T21:03:58.958Z,10.97
2022-11-09T21:06:26.674Z,10.93
2022-11-09T21:08:55.930Z,10.93
2022-11-09T21:11:28.611Z,10.94
2022-11-09T21:13:57.215Z,10.92
2022-11-09T21:16:25.295Z,10.89
2022-11-09T21:18:53.766Z,10.88
2022-11-09T21:21:24.506Z,10.89
2022-11-09T21:24:10.459Z,10.89
2022-11-09T21:26:58.021Z,10.89
2022-11-09T21:29:44.155Z,10.86
2022-11-09T21:32:12.941Z,10.88
2022-11-09T21:34:41.859Z,10.89
2022-11-09T21:37:11.460Z,10.90
2022-11-09T21:39:39.771Z,10.90
2022-11-09T21:42:11.403Z,10.89
2022-11-09T21:44:40.640Z,10.88
2022-11-09T21:47:10.046Z,10.88
2022-11-09T21:49:39.100Z,10.88
2022-11-09T21:52:07.415Z,10.86
2022-11-09T22:24:33.986Z,10.77
2022-11-09T23:03:19.421Z,10.65
2022-11-09T23:20:49.319Z,10.56
2022-11-09T23:24:14.940Z,10.51
